Flight Track Log - Related Links

Times and Time Zones

All times are in EDT time to prevent confusion due to time zone crossing. See the GJS6221 flight status page for this flight to view local times or setup timezone preferences in your user account.

Time Position Orientation Groundspeed Altitude Reporting Facility
EDT Latitude Longitude Course Direction KTS MPH feet Rate Location/Type
Tue 10:42:31 AM 40.7333 -73.8333 90° East 192 221 2,400  Level New York TRACON
Tue 10:43:25 AM 40.7333 -73.7667 90° East 233 268 5,200 1,895 Climbing New York TRACON
Tue 10:44:25 AM 40.7833 -73.8000 333° Northwest 254 292 6,000 800 Climbing New York TRACON
Tue 10:45:25 AM 40.7333 -73.8500 217° Southwest 255 293 6,800 476 Climbing New York TRACON
Tue 10:46:31 AM 40.6500 -73.8333 171° South 292 336 7,000 100 Climbing New York TRACON
Tue 10:47:25 AM 40.5833 -73.8500 191° South 279 321 7,000 -13 Level New York TRACON
Tue 11:02:21 AM 39.5972 -74.6381 229° Southwest 296 341 6,800 176 Descending Washington Center
Tue 11:03:00 AM 39.5691 -74.5966 218° Southwest  Level Estimated
Tue 11:03:22 AM 39.5311 -74.7008 216° Southwest 296 341 9,800  Level Washington Center
Tue 11:04:00 AM 39.5016 -74.6387 218° Southwest  Level Estimated
Tue 11:04:23 AM 39.4503 -74.7692 213° Southwest 320 368 10,000  Level Washington Center
Tue 11:05:00 AM 39.4341 -74.6808 216° Southwest  Level Estimated
Tue 11:05:23 AM 39.3569 -74.8319 207° Southwest 351 404 11,200  Level Washington Center
Tue 11:06:00 AM 39.3832 -74.7554 229° Southwest  Level FlightAware Approximate
Tue 11:06:21 AM 39.2656 -74.8947 208° Southwest 371 427 13,500  Level Washington Center
Tue 11:07:22 AM 39.1700 -74.9597 208° Southwest 382 440 15,700 1,180 Climbing Washington Center
Tue 11:08:23 AM 39.0703 -75.0275 208° Southwest 393 452 15,900 151 Climbing Washington Center
Tue 11:09:21 AM 38.9747 -75.0922 208° Southwest 393 452 16,000  Climbing Washington Center
Tue 11:10:21 AM 38.8750 -75.1622 209° Southwest 398 458 15,900  Descending Washington Center
Tue 11:11:23 AM 38.7750 -75.2269 207° Southwest 398 458 16,000 50 Climbing Washington Center
Tue 11:12:20 AM 38.6731 -75.2911 206° Southwest 403 464 16,000  Level Washington Center
Tue 11:13:21 AM 38.5753 -75.3606 209° Southwest 408 470 16,000  Level Washington Center
Tue 11:14:22 AM 38.4753 -75.4300 209° Southwest 408 470 16,000  Level Washington Center
Tue 11:15:23 AM 38.3733 -75.4936 206° Southwest 408 470 16,000  Level Washington Center
Tue 11:16:21 AM 38.2733 -75.5572 207° Southwest 408 470 16,000  Level Washington Center
Tue 11:17:21 AM 38.1689 -75.6181 205° Southwest 413 475 16,000  Level Washington Center
Tue 11:18:09 AM 38.0772 -75.6814 209° Southwest 405 466 16,000  Level Washington Center
Tue 11:18:21 AM 38.0689 -75.6842 195° South 403 464 16,000 -122 Level Washington Center
Tue 11:18:58 AM 38.0042 -75.7261 207° Southwest 404 465 15,900 -689 Descending Washington Center
Tue 11:19:22 AM 37.9708 -75.7444 203° Southwest 403 464 15,300 -1,701 Descending Washington Center
Tue 11:20:05 AM 37.8872 -75.7997 208° Southwest 408 470 14,000 -1,574 Descending Washington Center
Tue 11:20:23 AM 37.8706 -75.8128 212° Southwest 403 464 13,700 -1,500 Descending Washington Center
Tue 11:21:21 AM 37.7683 -75.8703 204° Southwest 408 470 12,100 -1,651 Descending Washington Center
Tue 11:22:12 AM 37.6742 -75.9119 199° South 392 451 10,700 -1,135 Descending Washington Center
Tue 11:23:12 AM 37.5719 -75.9297 188° South 360 414 10,000 -385 Descending Washington Center
Tue 11:24:01 AM 37.4928 -75.9453 189° South 350 403 10,000  Level Washington Center
Tue 11:24:22 AM 37.4739 -75.9450 179° South 367 422 10,000  Level Washington Center
Tue 11:24:55 AM 37.4114 -75.9578 189° South 314 361 10,000  Level Washington Center
Tue 11:25:23 AM 37.3864 -75.9603 185° South 348 400 10,000 -885 Level Washington Center
Tue 11:25:56 AM 37.3319 -75.9706 189° South 273 314 9,100 -1,600 Descending Washington Center
Tue 11:26:23 AM 37.3092 -75.9731 185° South 309 356 8,400 -2,149 Descending Washington Center
Tue 11:27:03 AM 37.2464 -75.9858 189° South 285 328 6,700 -2,172 Descending Washington Center
Tue 11:27:21 AM 37.2297 -75.9883 187° South 293 337 6,300 -1,855 Descending Washington Center
Tue 11:27:58 AM 37.1756 -75.9986 189° South 278 320 5,000 -1,959 Descending Washington Center
Tue 11:28:59 AM 37.1025 -76.0267 197° South 254 292 3,100 -1,488 Descending Washington Center
Tue 11:29:59 AM 37.0417 -76.0603 180° South 243 280 2,000 -545 Descending Washington Center
Tue 11:30:00 AM 37.0315 -76.0864 180° South  Level Estimated
Tue 11:31:00 AM 36.9894 -76.1119 218° Southwest 243 280 2,000  Level Washington Center
Tue 11:32:01 AM 36.9456 -76.1506 215° Southwest 172 198 1,100 -836 Descending Washington Center
Tue 11:33:02 AM 36.9119 -76.1842 219° Southwest 123 142 300 -787 Descending Washington Center

Login

Don't have an account? Register now (free) for customized features, flight alerts, and more!